createdAt,value
2022-08-16T00:00:20.474Z,100.00
2022-08-16T00:02:49.189Z,100.00
2022-08-16T00:05:15.907Z,100.00
2022-08-16T00:07:42.308Z,100.00
2022-08-16T00:10:09.629Z,100.00
2022-08-16T00:12:47.309Z,100.00
2022-08-16T00:15:24.289Z,100.00
2022-08-16T00:17:56.218Z,100.00
2022-08-16T00:20:24.122Z,100.00
2022-08-16T00:22:51.499Z,100.00
2022-08-16T00:25:18.252Z,100.00
2022-08-16T00:27:44.746Z,100.00
2022-08-16T00:30:28.518Z,100.00
2022-08-16T00:32:56.998Z,100.00
2022-08-16T00:35:26.247Z,100.00
2022-08-16T00:37:59.476Z,100.00
2022-08-16T00:40:50.810Z,100.00
2022-08-16T00:43:21.609Z,100.00
2022-08-16T00:45:57.768Z,100.00
2022-08-16T00:48:30.177Z,100.00
2022-08-16T00:50:57.805Z,100.00
2022-08-16T00:53:26.156Z,100.00
2022-08-16T00:55:53.114Z,100.00
2022-08-16T00:58:34.343Z,100.00
2022-08-16T01:01:01.633Z,100.00
2022-08-16T01:03:30.294Z,100.00
2022-08-16T01:05:56.936Z,100.00
2022-08-16T01:08:35.464Z,100.00
2022-08-16T01:11:03.531Z,100.00
2022-08-16T01:13:30.692Z,100.00
2022-08-16T01:16:01.266Z,100.00
2022-08-16T01:18:41.456Z,100.00
2022-08-16T01:21:33.470Z,100.00
2022-08-16T01:24:05.622Z,100.00
2022-08-16T01:26:51.979Z,100.00
2022-08-16T01:29:20.142Z,100.00
2022-08-16T01:32:06.490Z,100.00
2022-08-16T01:34:36.329Z,100.00
2022-08-16T01:37:13.999Z,100.00
2022-08-16T01:39:42.713Z,100.00
2022-08-16T01:42:12.976Z,100.00
2022-08-16T01:44:39.803Z,100.00
2022-08-16T01:47:06.252Z,100.00
2022-08-16T01:49:43.603Z,100.00
2022-08-16T01:52:29.533Z,100.00
2022-08-16T01:54:57.050Z,100.00
2022-08-16T01:57:24.703Z,100.00
2022-08-16T01:59:54.417Z,100.00
2022-08-16T02:02:27.018Z,100.00
2022-08-16T02:04:55.172Z,100.00
2022-08-16T02:07:23.611Z,100.00
2022-08-16T02:09:58.648Z,100.00
2022-08-16T02:12:45.828Z,100.00
2022-08-16T02:15:13.946Z,100.00
2022-08-16T02:17:40.420Z,100.00
2022-08-16T02:20:11.668Z,100.00
2022-08-16T02:22:38.660Z,100.00
2022-08-16T02:25:06.533Z,100.00
2022-08-16T02:27:34.809Z,100.00
2022-08-16T02:30:05.107Z,100.00
2022-08-16T02:32:51.148Z,100.00
2022-08-16T02:35:18.526Z,100.00
2022-08-16T02:37:51.590Z,100.00
2022-08-16T02:40:19.640Z,100.00
2022-08-16T02:42:47.877Z,100.00
2022-08-16T02:45:16.046Z,100.00
2022-08-16T02:48:00.300Z,100.00
2022-08-16T02:50:55.564Z,100.00
2022-08-16T02:53:15.125Z,100.00
2022-08-16T02:55:44.736Z,100.00
2022-08-16T02:58:11.598Z,100.00
2022-08-16T03:00:40.216Z,100.00
2022-08-16T03:03:12.013Z,100.00
2022-08-16T03:05:42.035Z,100.00
2022-08-16T03:08:52.086Z,100.00
2022-08-16T03:10:55.727Z,100.00
2022-08-16T03:13:25.805Z,100.00
2022-08-16T03:15:52.891Z,100.00
2022-08-16T03:18:34.469Z,100.00
2022-08-16T03:21:07.166Z,100.00
2022-08-16T03:23:36.543Z,100.00
2022-08-16T03:26:02.910Z,100.00
2022-08-16T03:28:29.284Z,100.00
2022-08-16T03:30:56.723Z,100.00
2022-08-16T03:33:23.090Z,100.00
2022-08-16T03:35:49.771Z,100.00
2022-08-16T03:38:32.544Z,100.00
2022-08-16T03:41:00.159Z,100.00
2022-08-16T03:43:51.874Z,100.00
2022-08-16T03:46:47.445Z,100.00
2022-08-16T03:49:02.775Z,100.00
2022-08-16T03:51:29.150Z,100.00
2022-08-16T03:53:57.735Z,100.00
2022-08-16T03:56:27.954Z,100.00
2022-08-16T03:58:57.181Z,100.00
2022-08-16T04:01:24.566Z,100.00
2022-08-16T04:03:55.863Z,100.00
2022-08-16T04:06:22.500Z,100.00
2022-08-16T04:08:48.911Z,100.00
2022-08-16T04:11:16.265Z,100.00
2022-08-16T04:13:59.456Z,100.00
2022-08-16T04:16:31.199Z,100.00
2022-08-16T04:19:02.258Z,100.00
2022-08-16T04:21:32.079Z,100.00
2022-08-16T04:23:59.203Z,100.00
2022-08-16T04:26:25.587Z,100.00
2022-08-16T04:29:17.087Z,100.00
2022-08-16T04:31:43.927Z,100.00
2022-08-16T04:34:10.345Z,100.00
2022-08-16T04:36:39.378Z,100.00
2022-08-16T04:39:05.736Z,100.00
2022-08-16T04:41:37.486Z,100.00
2022-08-16T04:44:33.186Z,100.00
2022-08-16T04:47:03.462Z,100.00
2022-08-16T04:49:43.994Z,100.00
2022-08-16T04:52:33.093Z,100.00
2022-08-16T04:54:59.041Z,100.00
2022-08-16T04:57:26.398Z,100.00
2022-08-16T04:59:58.373Z,100.00
2022-08-16T05:02:42.202Z,100.00
2022-08-16T05:05:17.131Z,100.00
2022-08-16T05:07:57.938Z,100.00
2022-08-16T05:10:26.362Z,100.00
2022-08-16T05:12:52.722Z,100.00
2022-08-16T05:15:19.094Z,96.70
2022-08-16T05:17:46.779Z,97.55
2022-08-16T05:20:38.711Z,96.15
2022-08-16T05:22:59.547Z,95.45
2022-08-16T05:25:48.561Z,95.88
2022-08-16T05:28:13.106Z,95.68
2022-08-16T05:30:39.732Z,95.27
2022-08-16T05:33:16.674Z,94.72
2022-08-16T05:35:44.640Z,93.06
2022-08-16T05:38:33.477Z,92.52
2022-08-16T05:41:05.964Z,93.85
2022-08-16T05:43:46.835Z,94.30
2022-08-16T05:46:30.085Z,96.84
2022-08-16T05:49:03.133Z,96.38
2022-08-16T05:51:38.135Z,96.75
2022-08-16T05:54:06.649Z,96.46
2022-08-16T05:56:33.007Z,96.92
2022-08-16T05:59:02.416Z,98.16
2022-08-16T06:01:29.272Z,98.16
2022-08-16T06:03:59.295Z,97.48
2022-08-16T06:06:27.989Z,99.83
2022-08-16T06:08:55.447Z,99.93
2022-08-16T06:11:22.190Z,99.30
2022-08-16T06:13:51.959Z,99.62
2022-08-16T06:16:22.054Z,100.00
2022-08-16T06:18:53.324Z,99.95
2022-08-16T06:21:22.899Z,99.44
2022-08-16T06:23:53.968Z,97.71
2022-08-16T06:26:20.838Z,94.48
2022-08-16T06:28:47.267Z,94.09
2022-08-16T06:31:13.710Z,90.85
2022-08-16T06:33:41.592Z,90.70
2022-08-16T06:36:09.002Z,89.67
2022-08-16T06:38:35.788Z,88.22
2022-08-16T06:41:05.788Z,87.35
2022-08-16T06:43:35.505Z,87.22
2022-08-16T06:46:03.573Z,86.44
2022-08-16T06:48:32.803Z,87.24
2022-08-16T06:51:00.168Z,84.24
2022-08-16T06:53:26.539Z,86.33
2022-08-16T06:55:58.114Z,86.06
2022-08-16T06:58:31.716Z,86.13
2022-08-16T07:00:59.673Z,84.45
2022-08-16T07:03:28.273Z,83.48
2022-08-16T07:05:59.037Z,84.98
2022-08-16T07:08:25.638Z,84.73
2022-08-16T07:10:53.889Z,83.32
2022-08-16T07:13:43.673Z,82.19
2022-08-16T07:16:07.596Z,81.74
2022-08-16T07:18:35.075Z,83.05
2022-08-16T07:21:02.357Z,83.57
2022-08-16T07:23:36.949Z,81.14
2022-08-16T07:26:06.087Z,80.47
2022-08-16T07:28:32.472Z,79.74
2022-08-16T07:31:01.944Z,76.82
2022-08-16T07:33:51.827Z,79.50
2022-08-16T07:36:14.897Z,77.52
2022-08-16T07:38:48.822Z,77.59
2022-08-16T07:41:16.429Z,77.38
2022-08-16T07:43:43.303Z,78.89
2022-08-16T07:46:37.570Z,75.71
2022-08-16T07:48:56.263Z,76.40
2022-08-16T07:51:31.718Z,78.32
2022-08-16T07:54:02.336Z,77.11
2022-08-16T07:56:37.193Z,76.98
2022-08-16T07:59:04.088Z,78.91
2022-08-16T08:01:31.882Z,75.54
2022-08-16T08:03:58.516Z,75.95
2022-08-16T08:06:25.611Z,74.83
2022-08-16T08:08:57.614Z,74.64
2022-08-16T08:11:28.150Z,75.75
2022-08-16T08:13:55.028Z,76.38
2022-08-16T08:16:30.129Z,76.93
2022-08-16T08:19:01.039Z,75.58
2022-08-16T08:22:01.068Z,73.40
2022-08-16T08:24:15.561Z,74.10
2022-08-16T08:26:43.038Z,77.28
2022-08-16T08:29:09.592Z,73.66
2022-08-16T08:31:36.388Z,75.11
2022-08-16T08:34:07.224Z,73.43
2022-08-16T08:36:34.418Z,74.89
2022-08-16T08:39:12.541Z,75.70
2022-08-16T08:41:40.471Z,72.68
2022-08-16T08:44:28.732Z,73.55
2022-08-16T08:47:00.130Z,76.15
2022-08-16T08:49:46.323Z,75.62
2022-08-16T08:52:33.724Z,73.29
2022-08-16T08:55:03.265Z,73.41
2022-08-16T08:57:35.697Z,70.93
2022-08-16T09:00:03.137Z,72.13
2022-08-16T09:02:39.730Z,71.27
2022-08-16T09:05:14.909Z,73.71
2022-08-16T09:08:00.959Z,72.53
2022-08-16T09:10:29.420Z,70.22
2022-08-16T09:12:56.391Z,69.39
2022-08-16T09:15:23.890Z,70.65
2022-08-16T09:17:55.695Z,69.13
2022-08-16T09:20:23.675Z,72.23
2022-08-16T09:22:52.683Z,67.15
2022-08-16T09:25:25.781Z,68.60
2022-08-16T09:28:02.644Z,71.19
2022-08-16T09:30:43.996Z,70.96
2022-08-16T09:33:11.084Z,67.21
2022-08-16T09:35:38.735Z,68.35
2022-08-16T09:38:05.669Z,70.20
2022-08-16T09:40:42.764Z,69.47
2022-08-16T09:43:21.048Z,67.11
2022-08-16T09:45:56.835Z,67.42
2022-08-16T09:48:44.100Z,67.16
2022-08-16T09:51:09.822Z,65.98
2022-08-16T09:53:37.421Z,66.03
2022-08-16T09:56:11.531Z,70.35
2022-08-16T09:59:05.258Z,66.48
2022-08-16T10:01:24.526Z,64.45
2022-08-16T10:04:01.564Z,63.02
2022-08-16T10:06:33.485Z,63.74
2022-08-16T10:09:05.584Z,63.52
2022-08-16T10:11:51.704Z,62.31
2022-08-16T10:14:19.947Z,63.63
2022-08-16T10:16:51.149Z,62.77
2022-08-16T10:19:26.219Z,64.32
2022-08-16T10:21:56.552Z,63.87
2022-08-16T10:24:28.324Z,63.27
2022-08-16T10:27:16.313Z,62.99
2022-08-16T10:30:00.129Z,58.57
2022-08-16T10:32:27.975Z,58.76
2022-08-16T10:34:57.212Z,62.01
2022-08-16T10:37:32.217Z,58.78
2022-08-16T10:40:02.558Z,61.04
2022-08-16T10:42:29.134Z,59.55
2022-08-16T10:44:56.351Z,58.83
2022-08-16T10:47:22.987Z,58.32
2022-08-16T10:49:50.112Z,58.49
2022-08-16T10:52:18.145Z,58.00
2022-08-16T10:55:40.835Z,57.10
2022-08-16T10:57:35.123Z,57.77
2022-08-16T11:00:04.425Z,57.57
2022-08-16T11:02:59.374Z,56.23
2022-08-16T11:05:18.126Z,58.46
2022-08-16T11:07:52.447Z,56.45
2022-08-16T11:11:05.263Z,53.21
2022-08-16T11:15:57.489Z,51.20
2022-08-16T11:18:48.685Z,50.60
2022-08-16T11:21:10.645Z,51.04
2022-08-16T11:23:58.366Z,53.96
2022-08-16T11:26:25.422Z,50.86
2022-08-16T11:31:39.495Z,49.71
2022-08-16T11:34:09.219Z,48.61
2022-08-16T11:36:36.669Z,49.55
2022-08-16T11:39:03.665Z,48.14
2022-08-16T11:41:32.305Z,50.73
2022-08-16T11:43:58.837Z,48.27
2022-08-16T11:46:44.521Z,45.52
2022-08-16T11:49:13.976Z,45.33
2022-08-16T11:51:43.839Z,47.13
2022-08-16T11:54:20.834Z,47.63
2022-08-16T11:56:52.901Z,48.60
2022-08-16T11:59:25.344Z,47.11
2022-08-16T12:02:00.068Z,47.18
2022-08-16T12:04:45.028Z,45.49
2022-08-16T12:07:11.390Z,44.85
2022-08-16T12:09:43.533Z,47.27
2022-08-16T12:12:10.024Z,46.86
2022-08-16T12:14:37.637Z,45.24
2022-08-16T12:17:04.518Z,46.93
2022-08-16T12:19:35.236Z,46.13
2022-08-16T12:22:05.903Z,45.33
2022-08-16T12:24:47.873Z,48.26
2022-08-16T12:27:17.670Z,46.18
2022-08-16T12:29:44.041Z,44.54
2022-08-16T12:32:37.906Z,44.44
2022-08-16T12:34:56.749Z,43.59
2022-08-16T12:37:24.632Z,42.96
2022-08-16T12:39:52.430Z,46.00
2022-08-16T12:42:19.484Z,42.24
2022-08-16T12:44:47.164Z,42.70
2022-08-16T12:47:32.647Z,45.68
2022-08-16T12:49:59.348Z,41.87
2022-08-16T12:52:32.772Z,42.74
2022-08-16T12:55:00.559Z,42.69
2022-08-16T12:57:36.445Z,40.33
2022-08-16T13:00:04.909Z,41.90
2022-08-16T13:02:33.314Z,41.48
2022-08-16T13:05:02.578Z,42.24
2022-08-16T13:07:29.561Z,42.15
2022-08-16T13:10:21.010Z,40.88
2022-08-16T13:12:58.590Z,39.31
2022-08-16T13:15:25.665Z,43.03
2022-08-16T13:17:54.394Z,40.38
2022-08-16T13:20:22.568Z,37.10
2022-08-16T13:22:50.838Z,38.37
2022-08-16T13:25:20.833Z,38.76
2022-08-16T13:28:02.823Z,39.65
2022-08-16T13:30:36.969Z,38.19
2022-08-16T13:33:12.512Z,37.72
2022-08-16T13:35:43.323Z,38.96
2022-08-16T13:38:10.220Z,37.54
2022-08-16T13:40:47.920Z,37.28
2022-08-16T13:43:15.416Z,37.56
2022-08-16T13:45:44.926Z,37.04
2022-08-16T13:48:11.605Z,39.39
2022-08-16T13:50:52.134Z,36.90
2022-08-16T13:53:18.699Z,36.36
2022-08-16T13:55:58.435Z,35.46
2022-08-16T13:58:37.309Z,37.93
2022-08-16T14:01:12.302Z,37.73
2022-08-16T14:03:39.532Z,36.37
2022-08-16T14:06:06.608Z,37.40
2022-08-16T14:08:37.402Z,39.99
2022-08-16T14:11:11.809Z,37.06
2022-08-16T14:13:38.965Z,38.11
2022-08-16T14:16:08.211Z,39.13
2022-08-16T14:18:50.904Z,39.26
2022-08-16T14:21:19.295Z,42.70
2022-08-16T14:23:48.384Z,41.95
2022-08-16T14:26:14.792Z,41.58
2022-08-16T14:28:41.156Z,38.73
2022-08-16T14:31:09.386Z,39.75
2022-08-16T14:33:35.963Z,37.72
2022-08-16T14:36:02.327Z,36.18
2022-08-16T14:38:29.795Z,38.81
2022-08-16T14:41:06.901Z,38.73
2022-08-16T14:43:36.627Z,39.10
2022-08-16T14:46:04.612Z,39.51
2022-08-16T14:48:33.994Z,40.17
2022-08-16T14:51:01.091Z,40.48
2022-08-16T14:53:27.955Z,40.60
2022-08-16T14:55:54.369Z,39.00
2022-08-16T14:58:34.538Z,43.63
2022-08-16T15:01:03.057Z,40.10
2022-08-16T15:03:29.573Z,40.87
2022-08-16T15:06:00.341Z,42.97
2022-08-16T15:08:36.129Z,43.89
2022-08-16T15:11:03.343Z,42.59
2022-08-16T15:13:29.690Z,41.88
2022-08-16T15:15:58.978Z,41.38
2022-08-16T15:18:31.947Z,39.93
2022-08-16T15:20:58.806Z,40.80
2022-08-16T15:23:25.451Z,40.57
2022-08-16T15:26:02.618Z,40.27
2022-08-16T15:28:31.785Z,40.36
2022-08-16T15:31:01.027Z,41.98
2022-08-16T15:33:32.241Z,42.39
2022-08-16T15:35:59.133Z,41.64
2022-08-16T15:38:57.528Z,40.96
2022-08-16T15:41:26.960Z,42.02
2022-08-16T15:44:05.474Z,41.81
2022-08-16T15:46:55.028Z,42.15
2022-08-16T15:49:23.702Z,41.92
2022-08-16T15:51:51.770Z,42.03
2022-08-16T15:54:30.039Z,43.01
2022-08-16T15:57:02.763Z,43.31
2022-08-16T15:59:49.493Z,42.79
2022-08-16T16:02:29.150Z,46.71
2022-08-16T16:04:57.536Z,46.46
2022-08-16T16:07:27.498Z,46.74
2022-08-16T16:09:58.246Z,43.67
2022-08-16T16:15:12.181Z,49.67
2022-08-16T16:17:38.551Z,50.50
2022-08-16T16:20:13.761Z,46.12
2022-08-16T16:22:41.722Z,48.79
2022-08-16T16:25:08.545Z,52.03
2022-08-16T16:27:36.137Z,52.08
2022-08-16T16:30:04.353Z,51.60
2022-08-16T16:32:50.710Z,52.31
2022-08-16T16:35:17.081Z,54.02
2022-08-16T16:37:44.244Z,53.27
2022-08-16T16:40:11.158Z,53.84
2022-08-16T16:42:44.211Z,53.37
2022-08-16T16:45:12.015Z,52.48
2022-08-16T16:47:41.427Z,48.59
2022-08-16T16:50:09.203Z,54.68
2022-08-16T16:52:44.304Z,54.94
2022-08-16T16:55:12.730Z,55.98
2022-08-16T16:57:57.879Z,56.58
2022-08-16T17:00:30.225Z,58.33
2022-08-16T17:03:05.492Z,54.96
2022-08-16T17:05:32.581Z,57.53
2022-08-16T17:07:59.172Z,56.10
2022-08-16T17:10:46.243Z,55.26
2022-08-16T17:13:13.900Z,56.40
2022-08-16T17:15:45.499Z,55.42
2022-08-16T17:19:15.466Z,55.16
2022-08-16T17:21:05.605Z,54.78
2022-08-16T17:23:58.418Z,56.68
2022-08-16T17:26:18.353Z,57.42
2022-08-16T17:28:59.556Z,57.72
2022-08-16T17:31:40.678Z,59.29
2022-08-16T17:34:29.390Z,57.63
2022-08-16T17:36:54.547Z,57.94
2022-08-16T17:39:21.112Z,59.00
2022-08-16T17:41:50.202Z,58.48
2022-08-16T17:44:19.109Z,59.90
2022-08-16T17:46:51.169Z,58.58
2022-08-16T17:49:19.014Z,58.97
2022-08-16T17:51:45.459Z,62.36
2022-08-16T17:54:20.397Z,60.17
2022-08-16T17:56:57.303Z,61.16
2022-08-16T17:59:24.176Z,59.10
2022-08-16T18:01:50.634Z,59.15
2022-08-16T18:04:48.815Z,58.53
2022-08-16T18:07:05.239Z,59.45
2022-08-16T18:09:31.633Z,58.83
2022-08-16T18:11:58.649Z,59.43
2022-08-16T18:14:52.499Z,61.05
2022-08-16T18:17:12.537Z,59.42
2022-08-16T18:19:39.063Z,59.29
2022-08-16T18:22:20.755Z,59.30
2022-08-16T18:24:47.736Z,59.35
2022-08-16T18:27:26.512Z,59.59
2022-08-16T18:29:53.601Z,59.19
2022-08-16T18:32:24.495Z,59.74
2022-08-16T18:34:51.489Z,59.47
2022-08-16T18:37:17.862Z,61.08
2022-08-16T18:39:48.116Z,62.35
2022-08-16T18:42:14.536Z,63.16
2022-08-16T18:44:42.453Z,63.76
2022-08-16T18:47:09.753Z,64.90
2022-08-16T18:49:36.735Z,62.78
2022-08-16T18:52:03.415Z,64.72
2022-08-16T18:54:30.231Z,59.92
2022-08-16T18:56:58.336Z,64.76
2022-08-16T18:59:28.507Z,66.75
2022-08-16T19:01:59.734Z,69.31
2022-08-16T19:04:55.364Z,69.50
2022-08-16T19:07:12.665Z,70.22
2022-08-16T19:09:40.195Z,72.03
2022-08-16T19:12:06.701Z,70.92
2022-08-16T19:14:33.071Z,70.34
2022-08-16T19:16:59.453Z,70.82
2022-08-16T19:19:25.849Z,71.62
2022-08-16T19:21:52.448Z,72.42
2022-08-16T19:24:19.041Z,72.20
2022-08-16T19:26:45.638Z,73.11
2022-08-16T19:29:12.011Z,72.95
2022-08-16T19:31:39.965Z,74.15
2022-08-16T19:34:08.156Z,72.98
2022-08-16T19:36:36.692Z,73.75
2022-08-16T19:39:05.885Z,73.93
2022-08-16T19:41:33.173Z,72.88
2022-08-16T19:43:59.553Z,73.58
2022-08-16T19:46:25.932Z,74.08
2022-08-16T19:48:52.522Z,74.10
2022-08-16T19:51:19.152Z,73.86
2022-08-16T19:53:45.541Z,74.97
2022-08-16T19:56:11.956Z,74.27
2022-08-16T19:58:47.363Z,75.07
2022-08-16T20:01:24.908Z,74.88
2022-08-16T20:03:51.863Z,76.31
2022-08-16T20:06:35.816Z,76.13
2022-08-16T20:09:04.624Z,74.92
2022-08-16T20:11:31.040Z,72.89
2022-08-16T20:13:57.677Z,76.62
2022-08-16T20:16:24.058Z,75.28
2022-08-16T20:18:50.422Z,75.03
2022-08-16T20:21:17.444Z,75.14
2022-08-16T20:23:44.116Z,77.40
2022-08-16T20:29:40.131Z,76.80
2022-08-16T20:32:06.947Z,74.96
2022-08-16T20:34:33.285Z,76.03
2022-08-16T20:36:59.645Z,77.09
2022-08-16T20:39:26.107Z,76.20
2022-08-16T20:41:52.491Z,75.81
2022-08-16T20:44:25.389Z,76.35
2022-08-16T20:46:51.812Z,77.31
2022-08-16T20:49:18.137Z,76.98
2022-08-16T20:51:46.906Z,76.96
2022-08-16T20:54:16.368Z,78.18
2022-08-16T20:56:42.756Z,78.71
2022-08-16T20:59:09.124Z,79.20
2022-08-16T21:01:46.969Z,76.72
2022-08-16T21:04:18.696Z,76.76
2022-08-16T21:06:47.336Z,77.67
2022-08-16T21:09:21.300Z,78.84
2022-08-16T21:11:51.555Z,76.51
2022-08-16T21:14:18.010Z,76.50
2022-08-16T21:16:44.398Z,77.06
2022-08-16T21:19:10.788Z,76.96
2022-08-16T21:21:37.196Z,76.92
2022-08-16T21:24:03.649Z,78.23
2022-08-16T21:26:30.132Z,79.31
2022-08-16T21:28:56.568Z,79.99
2022-08-16T21:31:23.542Z,80.13
2022-08-16T21:33:55.404Z,79.64
2022-08-16T21:36:35.262Z,79.54
2022-08-16T21:39:02.413Z,80.06
2022-08-16T21:41:28.790Z,80.81
2022-08-16T21:43:55.151Z,80.49
2022-08-16T21:46:21.541Z,81.08
2022-08-16T21:48:47.895Z,81.12
2022-08-16T21:51:15.757Z,80.79
2022-08-16T21:53:42.475Z,81.81
2022-08-16T21:56:12.682Z,83.64
2022-08-16T21:58:43.968Z,84.23
2022-08-16T22:01:10.347Z,82.83
2022-08-16T22:03:36.768Z,83.93
2022-08-16T22:06:13.277Z,81.69
2022-08-16T22:08:49.840Z,83.93
2022-08-16T22:11:20.608Z,84.09
2022-08-16T22:13:58.031Z,83.61
2022-08-16T22:16:25.107Z,83.38
2022-08-16T22:18:51.965Z,81.82
2022-08-16T22:21:18.957Z,78.79
2022-08-16T22:23:45.309Z,79.84
2022-08-16T22:26:30.448Z,80.66
2022-08-16T22:28:58.751Z,80.27
2022-08-16T22:31:25.381Z,80.21
2022-08-16T22:33:51.744Z,80.02
2022-08-16T22:36:18.106Z,80.84
2022-08-16T22:38:55.242Z,79.43
2022-08-16T22:41:23.280Z,78.84
2022-08-16T22:43:49.643Z,77.82
2022-08-16T22:46:16.202Z,77.13
2022-08-16T22:48:43.069Z,79.76
2022-08-16T22:51:09.486Z,79.23
2022-08-16T22:53:37.356Z,80.00
2022-08-16T22:56:04.388Z,81.27
2022-08-16T22:58:34.083Z,81.60
2022-08-16T23:01:04.467Z,83.84
2022-08-16T23:03:30.898Z,82.71
2022-08-16T23:05:58.327Z,84.10
2022-08-16T23:08:38.449Z,83.97
2022-08-16T23:11:10.672Z,83.01
2022-08-16T23:13:37.096Z,83.26
2022-08-16T23:16:10.713Z,85.66
2022-08-16T23:18:37.941Z,83.39
2022-08-16T23:21:05.081Z,81.71
2022-08-16T23:23:31.442Z,84.56
2022-08-16T23:25:57.973Z,83.47
2022-08-16T23:28:28.005Z,84.48
2022-08-16T23:30:54.889Z,86.91
2022-08-16T23:33:21.884Z,83.93
2022-08-16T23:35:49.129Z,84.63
2022-08-16T23:38:37.474Z,85.55
2022-08-16T23:41:04.063Z,85.13
2022-08-16T23:43:38.716Z,85.06
2022-08-16T23:46:06.673Z,84.71
2022-08-16T23:48:33.740Z,81.25
2022-08-16T23:51:20.190Z,83.05
2022-08-16T23:53:47.103Z,86.05
2022-08-16T23:56:15.291Z,86.92
2022-08-16T23:58:46.238Z,85.95
